createdAt,value
2023-02-15T00:03:39.365Z,82.70
2023-02-15T00:08:42.494Z,83.10
2023-02-15T00:13:45.450Z,83.10
2023-02-15T00:18:53.228Z,83.30
2023-02-15T00:23:55.792Z,83.20
2023-02-15T00:29:00.380Z,83.40
2023-02-15T00:34:13.230Z,83.70
2023-02-15T00:39:17.202Z,84.00
2023-02-15T00:44:22.360Z,84.10
2023-02-15T00:49:26.711Z,84.70
2023-02-15T00:54:38.872Z,85.10
2023-02-15T00:59:41.563Z,85.10
2023-02-15T01:04:46.264Z,84.90
2023-02-15T01:09:49.601Z,84.60
2023-02-15T01:14:55.843Z,84.50
2023-02-15T01:20:00.158Z,84.30
2023-02-15T01:25:03.025Z,84.20
2023-02-15T01:30:06.819Z,84.10
2023-02-15T01:35:11.640Z,83.90
2023-02-15T01:40:26.392Z,83.80
2023-02-15T01:45:30.848Z,83.90
2023-02-15T01:50:38.354Z,84.20
2023-02-15T01:55:48.252Z,84.90
2023-02-15T02:00:51.051Z,85.10
2023-02-15T02:05:58.891Z,85.90
2023-02-15T02:11:01.699Z,85.40
2023-02-15T02:16:15.111Z,85.30
2023-02-15T02:21:48.035Z,85.20
2023-02-15T02:27:19.907Z,85.50
2023-02-15T02:33:14.116Z,85.60
2023-02-15T02:38:28.629Z,85.80
2023-02-15T02:43:37.498Z,85.30
2023-02-15T02:48:41.044Z,85.20
2023-02-15T02:53:45.435Z,85.10
2023-02-15T02:58:51.797Z,84.90
2023-02-15T03:03:58.594Z,85.20
2023-02-15T03:09:10.151Z,85.80
2023-02-15T03:14:19.495Z,86.10
2023-02-15T03:19:26.988Z,86.20
2023-02-15T03:24:36.259Z,86.10
2023-02-15T03:29:39.943Z,85.90
2023-02-15T03:34:42.659Z,85.80
2023-02-15T03:39:55.709Z,85.70
2023-02-15T03:45:06.194Z,85.60
2023-02-15T03:50:15.001Z,85.90
2023-02-15T03:55:26.130Z,84.80
2023-02-15T04:00:29.291Z,85.00
2023-02-15T04:05:32.013Z,85.20
2023-02-15T04:10:37.168Z,85.20
2023-02-15T04:15:40.673Z,85.60
2023-02-15T04:20:45.560Z,86.00
2023-02-15T04:25:49.843Z,86.40
2023-02-15T04:30:54.706Z,86.40
2023-02-15T04:35:58.046Z,86.40
2023-02-15T04:41:02.250Z,86.40
2023-02-15T04:46:05.309Z,86.60
2023-02-15T04:51:08.435Z,86.90
2023-02-15T04:56:21.716Z,87.10
2023-02-15T05:01:24.440Z,87.50
2023-02-15T05:06:27.425Z,87.30
2023-02-15T05:11:35.522Z,87.30
2023-02-15T05:16:38.266Z,87.00
2023-02-15T05:21:44.820Z,86.60
2023-02-15T05:26:49.099Z,86.80
2023-02-15T05:31:51.913Z,86.80
2023-02-15T05:36:54.808Z,86.80
2023-02-15T05:42:02.315Z,86.70
2023-02-15T05:47:05.998Z,87.20
2023-02-15T05:52:09.542Z,87.40
2023-02-15T05:57:13.973Z,87.50
2023-02-15T06:02:16.705Z,87.80
2023-02-15T06:07:19.649Z,87.80
2023-02-15T06:12:24.087Z,87.80
2023-02-15T06:17:26.808Z,88.00
2023-02-15T06:22:32.782Z,88.10
2023-02-15T06:27:36.985Z,87.70
2023-02-15T06:32:39.670Z,87.40
2023-02-15T06:37:42.422Z,87.60
2023-02-15T06:42:46.759Z,87.30
2023-02-15T06:47:52.361Z,87.40
2023-02-15T06:52:58.482Z,87.80
2023-02-15T06:58:02.794Z,87.90
2023-02-15T07:03:05.423Z,87.90
2023-02-15T07:08:11.302Z,88.10
2023-02-15T07:13:18.060Z,88.00
2023-02-15T07:18:20.856Z,87.70
2023-02-15T07:23:23.567Z,87.70
2023-02-15T07:28:33.858Z,87.80
2023-02-15T07:33:36.937Z,88.20
2023-02-15T07:38:42.010Z,88.70
2023-02-15T07:43:49.501Z,89.00
2023-02-15T07:48:52.081Z,89.50
2023-02-15T07:53:54.997Z,89.50
2023-02-15T07:58:59.237Z,88.20
2023-02-15T08:04:02.440Z,86.60
2023-02-15T08:09:10.345Z,85.80
2023-02-15T08:14:15.465Z,85.00
2023-02-15T08:19:20.243Z,84.20
2023-02-15T08:24:25.106Z,84.40
2023-02-15T08:29:30.754Z,83.70
2023-02-15T08:34:38.459Z,81.60
2023-02-15T08:39:42.281Z,80.10
2023-02-15T08:44:50.596Z,79.20
2023-02-15T08:49:53.177Z,79.50
2023-02-15T08:55:05.004Z,80.60
2023-02-15T09:00:11.710Z,81.20
2023-02-15T09:05:15.669Z,81.60
2023-02-15T09:10:18.807Z,81.60
2023-02-15T09:15:25.326Z,81.20
2023-02-15T09:20:28.198Z,80.40
2023-02-15T09:25:35.972Z,80.00
2023-02-15T09:30:42.551Z,79.40
2023-02-15T09:35:46.286Z,79.50
2023-02-15T09:41:14.211Z,79.00
2023-02-15T09:46:47.012Z,77.60
2023-02-15T09:52:23.145Z,77.30
2023-02-15T09:57:39.316Z,77.10
2023-02-15T10:03:19.368Z,77.50
2023-02-15T10:08:42.685Z,76.90
2023-02-15T10:13:58.615Z,76.80
2023-02-15T10:19:15.030Z,77.70
2023-02-15T10:24:40.784Z,77.30
2023-02-15T10:29:53.871Z,76.80
2023-02-15T10:35:13.601Z,76.30
2023-02-15T10:40:28.539Z,76.10
2023-02-15T10:45:37.183Z,76.40
2023-02-15T10:50:52.736Z,75.90
2023-02-15T10:56:10.936Z,74.80
2023-02-15T11:01:20.592Z,74.60
2023-02-15T11:06:27.390Z,74.80
2023-02-15T11:11:39.874Z,73.60
2023-02-15T11:16:45.713Z,72.80
2023-02-15T11:21:56.121Z,72.30
2023-02-15T11:27:07.712Z,71.40
2023-02-15T11:32:26.561Z,71.60
2023-02-15T11:37:37.259Z,70.60
2023-02-15T11:42:43.222Z,70.30
2023-02-15T11:47:46.036Z,70.80
2023-02-15T11:52:51.173Z,70.00
2023-02-15T11:58:00.701Z,69.90
2023-02-15T12:03:11.186Z,69.60
2023-02-15T12:08:18.674Z,69.00
2023-02-15T12:13:27.278Z,69.30
2023-02-15T12:18:39.977Z,68.30
2023-02-15T12:23:51.608Z,67.10
2023-02-15T12:29:01.064Z,67.00
2023-02-15T12:34:14.313Z,67.50
2023-02-15T12:39:24.218Z,66.20
2023-02-15T12:44:33.308Z,67.30
2023-02-15T12:49:40.090Z,67.90
2023-02-15T12:54:48.848Z,66.90
2023-02-15T12:59:52.869Z,66.70
2023-02-15T13:04:57.071Z,67.90
2023-02-15T13:10:01.542Z,67.10
2023-02-15T13:15:04.837Z,66.80
2023-02-15T13:20:21.107Z,67.50
2023-02-15T13:25:29.602Z,66.20
2023-02-15T13:30:34.968Z,65.20
2023-02-15T13:35:44.069Z,64.70
2023-02-15T13:40:57.143Z,64.80
2023-02-15T13:46:12.673Z,64.20
2023-02-15T13:51:30.644Z,64.60
2023-02-15T13:56:50.149Z,65.00
2023-02-15T14:01:58.496Z,64.80
2023-02-15T14:07:21.124Z,64.80
2023-02-15T14:12:44.959Z,64.70
2023-02-15T14:17:59.865Z,64.50
2023-02-15T14:23:13.371Z,65.20
2023-02-15T14:28:29.305Z,65.20
2023-02-15T14:33:44.217Z,65.80
2023-02-15T14:38:58.542Z,66.70
2023-02-15T14:44:22.573Z,67.40
2023-02-15T14:49:29.863Z,67.90
2023-02-15T14:54:50.783Z,68.40
2023-02-15T14:59:58.292Z,69.30
2023-02-15T15:05:07.632Z,69.20
2023-02-15T15:10:36.669Z,69.40
2023-02-15T15:15:48.655Z,69.40
2023-02-15T15:20:53.411Z,69.80
2023-02-15T15:26:30.463Z,70.10
2023-02-15T15:31:39.004Z,70.50
2023-02-15T15:37:16.682Z,70.90
2023-02-15T15:42:32.045Z,71.00
2023-02-15T15:48:01.953Z,71.20
2023-02-15T15:53:21.480Z,71.50
2023-02-15T15:58:25.393Z,71.70
2023-02-15T16:03:30.504Z,71.80
2023-02-15T16:08:35.683Z,72.10
2023-02-15T16:13:45.553Z,72.30
2023-02-15T16:18:52.747Z,72.50
2023-02-15T16:24:19.839Z,72.60
2023-02-15T16:29:27.809Z,72.80
2023-02-15T16:34:54.503Z,73.20
2023-02-15T16:39:57.590Z,73.20
2023-02-15T16:45:07.796Z,73.20
2023-02-15T16:50:20.250Z,73.50
2023-02-15T16:55:24.113Z,74.00
2023-02-15T17:00:29.501Z,74.00
2023-02-15T17:05:34.735Z,74.30
2023-02-15T17:10:39.424Z,74.60
2023-02-15T17:15:43.376Z,74.80
2023-02-15T17:20:48.680Z,76.10
2023-02-15T17:25:51.377Z,75.50
2023-02-15T17:30:55.790Z,76.40
2023-02-15T17:36:10.106Z,75.60
2023-02-15T17:41:12.505Z,76.10
2023-02-15T17:46:15.694Z,76.00
2023-02-15T17:51:20.534Z,76.00
2023-02-15T17:56:22.840Z,76.30
2023-02-15T18:01:25.246Z,76.40
2023-02-15T18:06:29.525Z,76.60
2023-02-15T18:11:33.047Z,77.00
2023-02-15T18:16:37.576Z,77.10
2023-02-15T18:21:41.438Z,77.20
2023-02-15T18:26:43.782Z,77.10
2023-02-15T18:31:54.153Z,77.10
2023-02-15T18:36:59.447Z,77.20
2023-02-15T18:42:01.738Z,77.20
2023-02-15T18:47:06.403Z,77.50
2023-02-15T18:52:16.032Z,76.90
2023-02-15T18:57:18.432Z,77.20
2023-02-15T19:02:21.037Z,77.10
2023-02-15T19:07:26.729Z,77.20
2023-02-15T19:12:29.402Z,77.30
2023-02-15T19:17:33.005Z,77.30
2023-02-15T19:22:36.818Z,77.40
2023-02-15T19:27:39.172Z,77.50
2023-02-15T19:32:41.494Z,77.50
2023-02-15T19:37:49.088Z,77.40
2023-02-15T19:42:53.100Z,77.60
2023-02-15T19:47:56.015Z,77.50
2023-02-15T19:53:00.083Z,77.40
2023-02-15T19:58:04.407Z,77.50
2023-02-15T20:03:06.826Z,77.50
2023-02-15T20:08:16.700Z,77.50
2023-02-15T20:13:20.270Z,77.70
2023-02-15T20:18:22.946Z,77.60
2023-02-15T20:23:30.920Z,77.50
2023-02-15T20:28:33.676Z,77.70
2023-02-15T20:33:36.073Z,77.60
2023-02-15T20:38:39.822Z,77.70
2023-02-15T20:43:42.182Z,77.80
2023-02-15T20:48:44.661Z,77.80
2023-02-15T20:53:49.040Z,77.80
2023-02-15T20:58:52.425Z,77.80
2023-02-15T21:03:54.891Z,77.80
2023-02-15T21:08:58.725Z,78.00
2023-02-15T21:14:01.019Z,78.00
2023-02-15T21:19:07.211Z,78.00
2023-02-15T21:24:15.811Z,78.00
2023-02-15T21:29:19.082Z,78.20
2023-02-15T21:34:21.444Z,78.00
2023-02-15T21:39:27.340Z,77.90
2023-02-15T21:44:29.668Z,78.10
2023-02-15T21:49:31.979Z,78.80
2023-02-15T21:54:35.873Z,77.80
2023-02-15T21:59:38.288Z,77.80
2023-02-15T22:04:40.562Z,77.80
2023-02-15T22:09:47.576Z,77.80
2023-02-15T22:14:53.083Z,78.00
2023-02-15T22:19:56.776Z,78.10
2023-02-15T22:25:00.627Z,78.10
2023-02-15T22:30:04.063Z,78.30
2023-02-15T22:35:12.097Z,78.30
2023-02-15T22:40:18.334Z,78.50
2023-02-15T22:45:22.515Z,78.50
2023-02-15T22:50:27.256Z,78.40
2023-02-15T22:55:36.287Z,78.40
2023-02-15T23:00:40.018Z,78.60
2023-02-15T23:05:42.353Z,78.40
2023-02-15T23:10:49.622Z,78.50
2023-02-15T23:15:54.580Z,78.40
2023-02-15T23:20:59.458Z,78.50
2023-02-15T23:26:05.422Z,78.10
2023-02-15T23:31:16.276Z,78.50
2023-02-15T23:36:28.562Z,78.70
2023-02-15T23:41:32.475Z,78.90
2023-02-15T23:46:39.766Z,78.80
2023-02-15T23:51:42.646Z,78.90
2023-02-15T23:56:50.208Z,79.30
